Terminal Aerodrome Forecast
Issued by NWS Boise, ID

Home | Current Version | Previous Version | Text Only | Print | Product List | Glossary On
Versions: 1 2 3 4 5 6 7 8 9 10 11 12
000
FTUS45 KBOI 172331
TAFBOI
TAF
KBOI 172331Z 1800/1824 13012G22KT P6SM SCT100 BKN200
     FM180500 32014G24KT P6SM VCSH SCT050 OVC090
     FM181200 31008KT P6SM BKN060=

USA.gov is the U.S. government's official web portal to all federal, state and local government web resources and services.